Time;durP1;ratioP1;P1;durP2;ratioP2;P2;SDS_P1;SDS_P2;PMS_P1;PMS_P2;Temp;Humidity;BMP_temperature;BMP_pressure;BME280_temperature;BME280_humidity;BME280_pressure;Samples;Min_cycle;Max_cycle;Signal;HPM_P1;HPM_P2
2023/07/16 00:00:20;;;;;;;5.60;2.17;;;;;;;-144.73;100.00;54259.91;5026578;28;20030;-72
2023/07/16 00:02:46;;;;;;;6.72;2.33;;;;;;;-144.73;100.00;54333.81;5023664;28;20539;-73
2023/07/16 00:05:12;;;;;;;5.55;2.17;;;;;;;-144.73;100.00;54325.59;5016619;28;20048;-71
2023/07/16 00:07:37;;;;;;;6.47;2.08;;;;;;;-144.73;100.00;54303.03;5032030;28;20038;-72
2023/07/16 00:10:03;;;;;;;6.35;2.15;;;;;;;-144.73;100.00;54325.59;5034040;28;20059;-71
2023/07/16 00:12:28;;;;;;;5.85;2.10;;;;;;;-144.73;100.00;54321.50;5032951;28;20026;-72
2023/07/16 00:14:55;;;;;;;5.80;2.25;;;;;;;-144.73;100.00;54294.81;5033424;28;20041;-72
2023/07/16 00:17:20;;;;;;;6.00;2.08;;;;;;;-144.73;100.00;54296.88;5031981;28;20025;-71
2023/07/16 00:19:46;;;;;;;4.40;2.03;;;;;;;-144.73;100.00;54313.28;5033244;28;20029;-71
2023/07/16 00:22:12;;;;;;;5.78;1.88;;;;;;;-144.73;100.00;54292.75;5032831;28;20048;-71
2023/07/16 00:24:37;;;;;;;11.25;2.70;;;;;;;-144.73;100.00;54321.50;5031988;28;20037;-71
2023/07/16 00:27:03;;;;;;;10.60;2.42;;;;;;;-144.73;100.00;54288.66;5032860;28;20117;-71
2023/07/16 00:29:29;;;;;;;10.20;2.63;;;;;;;-144.73;100.00;54284.56;5030626;28;20040;-72
2023/07/16 00:31:54;;;;;;;6.90;2.80;;;;;;;-144.73;100.00;54313.28;5032648;28;20029;-71
2023/07/16 00:34:19;;;;;;;6.97;2.83;;;;;;;-144.73;100.00;54329.72;5030287;28;20037;-71
2023/07/16 00:36:45;;;;;;;6.88;2.75;;;;;;;-144.73;100.00;54354.34;5032194;28;20033;-72
2023/07/16 00:39:10;;;;;;;5.10;2.17;;;;;;;-144.73;100.00;54276.34;5030573;28;20038;-72
2023/07/16 00:41:35;;;;;;;7.07;2.75;;;;;;;-144.73;100.00;54280.44;5023206;28;20021;-72
2023/07/16 00:44:01;;;;;;;8.32;3.10;;;;;;;-144.73;100.00;54309.19;5026530;28;20029;-71
2023/07/16 00:46:26;;;;;;;10.88;3.33;;;;;;;-144.73;100.00;54309.19;5025229;28;20084;-71
2023/07/16 00:48:52;;;;;;;6.97;2.83;;;;;;;-144.73;100.00;54305.06;5031222;28;20030;-71
2023/07/16 00:51:19;;;;;;;7.47;2.58;;;;;;;-144.73;100.00;54323.53;5046837;28;20049;-70
2023/07/16 00:53:45;;;;;;;8.98;3.30;;;;;;;-144.73;100.00;54333.81;5031809;28;21274;-71
2023/07/16 00:56:11;;;;;;;6.07;2.90;;;;;;;-144.73;100.00;54331.75;5030427;28;20025;-71
2023/07/16 00:58:36;;;;;;;8.38;2.92;;;;;;;-144.73;100.00;54321.50;5031638;28;20029;-71
2023/07/16 01:01:02;;;;;;;7.18;2.97;;;;;;;-144.73;100.00;54296.88;5031157;28;20032;-71
2023/07/16 01:03:27;;;;;;;8.68;3.22;;;;;;;-144.73;100.00;54305.06;5030273;28;20034;-71
2023/07/16 01:06:16;;;;;;;5.70;2.47;;;;;;;-144.73;100.00;54346.13;5030703;28;20026;-71
2023/07/16 01:08:46;;;;;;;9.68;2.65;;;;;;;-144.73;100.00;54305.06;5030714;28;20052;-72
2023/07/16 01:11:12;;;;;;;6.90;2.45;;;;;;;-144.73;100.00;54317.38;5031623;28;20108;-72
2023/07/16 01:13:38;;;;;;;6.18;2.85;;;;;;;-144.73;100.00;54317.38;5030517;28;20045;-72
2023/07/16 01:16:04;;;;;;;7.10;2.58;;;;;;;-144.73;100.00;54331.75;5030715;28;20429;-71
2023/07/16 01:18:29;;;;;;;5.68;2.15;;;;;;;-144.73;100.00;54313.28;5032838;28;20057;-72
2023/07/16 01:20:55;;;;;;;5.60;2.80;;;;;;;-144.73;100.00;54317.38;5034845;28;20029;-71
2023/07/16 01:23:47;;;;;;;8.70;2.75;;;;;;;-144.73;100.00;54313.28;5031982;28;20045;-72
2023/07/16 01:26:15;;;;;;;;;;;;;;;-144.73;100.00;54325.59;5032502;28;20021;-72
2023/07/16 01:28:54;;;;;;;6.05;2.28;;;;;;;-144.73;100.00;54321.50;5050191;28;19917;-72
2023/07/16 01:31:22;;;;;;;8.07;1.98;;;;;;;-144.73;100.00;54333.81;5034478;28;20038;-72
2023/07/16 01:33:50;;;;;;;9.95;2.40;;;;;;;-144.73;100.00;54311.22;5034362;28;20049;-70
2023/07/16 01:36:18;;;;;;;4.32;2.10;;;;;;;-144.73;100.00;54313.28;5034717;28;20097;-70
2023/07/16 01:38:44;;;;;;;4.45;2.38;;;;;;;-144.73;100.00;54317.38;5027851;28;20037;-70
2023/07/16 01:41:10;;;;;;;4.50;2.28;;;;;;;-144.73;100.00;54317.38;5035072;28;20018;-69
2023/07/16 01:43:36;;;;;;;10.15;3.40;;;;;;;-144.73;100.00;54321.50;5033594;28;20113;-71
2023/07/16 01:46:01;;;;;;;5.80;2.63;;;;;;;-144.73;100.00;54352.28;5035417;28;20048;-70
2023/07/16 01:48:37;;;;;;;7.22;2.58;;;;;;;-144.73;100.00;54315.34;5035167;28;20049;-70
2023/07/16 01:51:03;;;;;;;8.40;2.05;;;;;;;-144.73;100.00;54350.22;5035789;28;20550;-70
2023/07/16 01:53:29;;;;;;;8.20;2.30;;;;;;;-144.73;100.00;54333.81;5033610;28;20034;-70
2023/07/16 01:55:55;;;;;;;7.25;2.78;;;;;;;-144.73;100.00;54366.66;5034833;28;20484;-70
2023/07/16 01:58:20;;;;;;;4.10;2.13;;;;;;;-144.73;100.00;54344.06;5033035;28;20045;-70
2023/07/16 02:00:46;;;;;;;6.68;2.15;;;;;;;-144.73;100.00;54325.59;5035057;28;20048;-70
2023/07/16 02:03:11;;;;;;;8.88;2.42;;;;;;;-144.73;100.00;54333.81;5033320;28;20029;-69
2023/07/16 02:05:37;;;;;;;5.88;2.05;;;;;;;-144.73;100.00;54331.75;5049384;28;20021;-71
2023/07/16 02:08:02;;;;;;;8.10;2.08;;;;;;;-144.73;100.00;54387.19;5033571;28;20037;-70
2023/07/16 02:10:27;;;;;;;6.35;2.03;;;;;;;-144.73;100.00;54352.28;5033290;28;20017;-71
2023/07/16 02:12:53;;;;;;;8.85;2.30;;;;;;;-144.73;100.00;54317.38;5033903;28;20050;-70
2023/07/16 02:15:19;;;;;;;8.68;2.75;;;;;;;-144.73;100.00;54323.53;5033694;28;20070;-70
2023/07/16 02:17:45;;;;;;;7.10;2.17;;;;;;;-144.73;100.00;54325.59;5043876;28;20040;-70
2023/07/16 02:20:11;;;;;;;6.82;2.38;;;;;;;-144.73;100.00;54290.72;5034155;28;20025;-70
2023/07/16 02:22:36;;;;;;;3.97;1.95;;;;;;;-144.73;100.00;54305.06;5032704;28;20045;-70
2023/07/16 02:25:03;;;;;;;11.55;2.58;;;;;;;-144.73;100.00;54313.28;5035017;28;20021;-70
2023/07/16 02:27:28;;;;;;;5.82;2.78;;;;;;;-144.73;100.00;54342.03;5032268;28;20041;-70
2023/07/16 02:29:53;;;;;;;9.10;3.13;;;;;;;-144.73;100.00;54309.19;5034804;28;20029;-71
2023/07/16 02:32:19;;;;;;;7.68;2.47;;;;;;;-144.73;100.00;54337.91;5032766;28;20028;-71
2023/07/16 02:34:44;;;;;;;10.25;2.38;;;;;;;-144.73;100.00;54298.91;5050446;28;20026;-70
2023/07/16 02:37:10;;;;;;;7.18;2.42;;;;;;;-144.73;100.00;54317.38;5034828;28;20033;-70
2023/07/16 02:39:35;;;;;;;5.40;2.20;;;;;;;-144.73;100.00;54309.19;5034653;28;20032;-71
2023/07/16 02:42:00;;;;;;;9.38;2.30;;;;;;;-144.73;100.00;54313.28;5035111;28;20030;-70
2023/07/16 02:44:26;;;;;;;6.78;2.65;;;;;;;-144.73;100.00;54329.72;5032824;28;20037;-71
2023/07/16 02:46:51;;;;;;;4.72;1.92;;;;;;;-144.73;100.00;54317.38;5034698;28;20021;-71
2023/07/16 02:49:16;;;;;;;4.65;2.20;;;;;;;-144.73;100.00;54329.72;5033214;28;20048;-70
2023/07/16 02:51:42;;;;;;;7.93;2.00;;;;;;;-144.73;100.00;54350.22;5033178;28;20025;-70
2023/07/16 02:54:07;;;;;;;8.50;2.40;;;;;;;-144.73;100.00;54346.13;5034330;28;20041;-70
2023/07/16 02:56:33;;;;;;;9.20;2.35;;;;;;;-144.73;100.00;54329.72;5033109;28;20155;-70
2023/07/16 02:59:21;;;;;;;7.88;2.60;;;;;;;-144.73;100.00;54342.03;5032557;28;20026;-71
2023/07/16 03:01:47;;;;;;;10.80;2.45;;;;;;;-144.73;100.00;54337.91;5029860;28;20028;-70
2023/07/16 03:04:12;;;;;;;9.88;2.65;;;;;;;-144.73;100.00;54323.53;5033931;28;20033;-70
2023/07/16 03:06:38;;;;;;;9.73;2.40;;;;;;;-144.73;100.00;54325.59;5033209;28;20491;-71
2023/07/16 03:09:03;;;;;;;6.95;2.67;;;;;;;-144.73;100.00;54305.06;5032658;28;20033;-70
2023/07/16 03:11:29;;;;;;;9.48;2.17;;;;;;;-144.73;100.00;54374.84;5032308;28;20024;-70
2023/07/16 03:13:54;;;;;;;6.45;2.30;;;;;;;-144.73;100.00;54350.22;5032353;28;20026;-70
2023/07/16 03:16:19;;;;;;;8.85;2.47;;;;;;;-144.73;100.00;54329.72;5032351;28;20048;-71
2023/07/16 03:18:45;;;;;;;6.90;2.28;;;;;;;-144.73;100.00;54325.59;5048652;28;20041;-71
2023/07/16 03:21:11;;;;;;;9.50;2.85;;;;;;;-144.73;100.00;54329.72;5033003;28;20056;-71
2023/07/16 03:23:36;;;;;;;4.78;1.92;;;;;;;-144.73;100.00;54333.81;5046840;28;20460;-74
2023/07/16 03:26:02;;;;;;;10.63;2.72;;;;;;;-144.73;100.00;54329.72;5030079;28;20503;-74
2023/07/16 03:28:27;;;;;;;8.32;2.25;;;;;;;-144.73;100.00;54276.34;5029750;28;20026;-75
2023/07/16 03:30:53;;;;;;;4.90;2.20;;;;;;;-144.73;100.00;54325.59;5029963;28;20075;-74
2023/07/16 03:33:19;;;;;;;4.78;2.15;;;;;;;-144.73;100.00;54309.19;5028046;28;20095;-74
2023/07/16 03:35:49;;;;;;;8.18;2.95;;;;;;;-144.73;100.00;54383.06;5030803;28;20445;-74
2023/07/16 03:38:14;;;;;;;9.45;2.05;;;;;;;-144.73;100.00;54366.66;5030327;28;20137;-74
2023/07/16 03:40:46;;;;;;;7.82;2.42;;;;;;;-144.73;100.00;54325.59;5029455;28;20100;-74
2023/07/16 03:43:11;;;;;;;;;;;;;;;-144.73;100.00;54317.38;5031278;28;20036;-74
2023/07/16 03:45:36;;;;;;;5.90;2.20;;;;;;;-144.73;100.00;54276.34;5061778;28;19909;-74
2023/07/16 03:48:02;;;;;;;9.23;2.25;;;;;;;-144.73;100.00;54354.34;5029102;28;20036;-75
2023/07/16 03:50:27;;;;;;;9.73;2.35;;;;;;;-144.73;100.00;54296.88;5030123;28;20021;-74
2023/07/16 03:52:52;;;;;;;6.72;2.60;;;;;;;-144.73;100.00;54333.81;5029031;28;20033;-74
2023/07/16 03:55:18;;;;;;;5.93;2.33;;;;;;;-144.73;100.00;54325.59;5028631;28;20017;-74
2023/07/16 03:57:43;;;;;;;9.70;2.28;;;;;;;-144.73;100.00;54346.13;5027260;28;20038;-74
2023/07/16 04:00:09;;;;;;;5.43;2.00;;;;;;;-144.73;100.00;54329.72;5029192;28;20052;-74
2023/07/16 04:02:35;;;;;;;11.27;2.60;;;;;;;-144.73;100.00;54327.66;5028411;28;20029;-74
2023/07/16 04:05:02;;;;;;;6.22;2.40;;;;;;;-144.73;100.00;54333.81;5029327;28;20039;-74
2023/07/16 04:07:27;;;;;;;7.93;2.25;;;;;;;-144.73;100.00;54374.84;5028514;28;20013;-74
2023/07/16 04:09:52;;;;;;;2.75;1.90;;;;;;;-144.73;100.00;54354.34;5028878;28;20032;-74
2023/07/16 04:12:17;;;;;;;6.22;2.65;;;;;;;-144.73;100.00;54346.13;5028862;28;20037;-74
2023/07/16 04:14:43;;;;;;;7.40;2.47;;;;;;;-144.73;100.00;54362.53;5029107;28;20021;-74
2023/07/16 04:17:08;;;;;;;8.88;2.10;;;;;;;-144.73;100.00;54298.91;5028984;28;20035;-74
2023/07/16 04:19:34;;;;;;;8.45;2.33;;;;;;;-144.73;100.00;54313.28;5030362;28;20067;-74
2023/07/16 04:22:00;;;;;;;10.55;2.85;;;;;;;-144.73;100.00;54366.66;5026208;28;20025;-74
2023/07/16 04:24:26;;;;;;;7.90;2.63;;;;;;;-144.73;100.00;54300.97;5028275;28;20048;-74
2023/07/16 04:26:53;;;;;;;7.55;2.88;;;;;;;-144.73;100.00;54325.59;5030463;28;20090;-74
2023/07/16 04:29:18;;;;;;;6.55;2.08;;;;;;;-144.73;100.00;54352.28;5029172;28;20056;-74
2023/07/16 04:31:44;;;;;;;10.40;2.63;;;;;;;-144.73;100.00;54350.22;5045422;28;20064;-74
2023/07/16 04:34:09;;;;;;;8.60;2.38;;;;;;;-144.73;100.00;54346.13;5027655;28;20054;-74
2023/07/16 04:36:35;;;;;;;9.02;3.53;;;;;;;-144.73;100.00;54342.03;5028629;28;20033;-74
2023/07/16 04:39:01;;;;;;;7.03;2.80;;;;;;;-144.73;100.00;54350.22;5028587;28;20041;-74
2023/07/16 04:41:27;;;;;;;7.55;2.63;;;;;;;-144.73;100.00;54325.59;5026142;28;20045;-74
2023/07/16 04:43:52;;;;;;;6.07;2.30;;;;;;;-144.73;100.00;54300.97;5028259;28;20037;-74
2023/07/16 04:46:17;;;;;;;8.30;3.05;;;;;;;-144.73;100.00;54346.13;5030107;28;20464;-74
2023/07/16 04:48:43;;;;;;;8.00;2.72;;;;;;;-144.73;100.00;54333.81;5028498;28;20037;-74
2023/07/16 04:51:08;;;;;;;4.43;2.10;;;;;;;-144.73;100.00;54370.75;5029173;28;20029;-75
2023/07/16 04:53:33;;;;;;;10.20;2.67;;;;;;;-144.73;100.00;54325.59;5048912;28;20038;-75
2023/07/16 04:55:59;;;;;;;9.27;2.83;;;;;;;-144.73;100.00;54335.88;5033615;28;20025;-75
2023/07/16 04:58:24;;;;;;;7.95;2.28;;;;;;;-144.73;100.00;54342.03;5032182;28;20140;-74
2023/07/16 05:00:49;;;;;;;12.00;2.25;;;;;;;-144.73;100.00;54319.44;5032580;28;20033;-75
2023/07/16 05:03:15;;;;;;;9.27;2.60;;;;;;;-144.73;100.00;54346.13;5031843;28;20034;-74
2023/07/16 05:05:40;;;;;;;8.30;2.72;;;;;;;-144.73;100.00;54329.72;5030344;28;20397;-75
2023/07/16 05:08:06;;;;;;;17.50;2.72;;;;;;;-144.73;100.00;54350.22;5032522;28;20029;-74
2023/07/16 05:10:31;;;;;;;10.52;2.72;;;;;;;-144.73;100.00;54350.22;5032514;28;20476;-75
2023/07/16 05:12:56;;;;;;;12.23;2.88;;;;;;;-144.73;100.00;54339.97;5045971;28;20037;-74
2023/07/16 05:15:22;;;;;;;7.55;2.60;;;;;;;-144.73;100.00;54366.66;5029961;28;20080;-74
2023/07/16 05:17:47;;;;;;;11.20;2.92;;;;;;;-144.73;100.00;54337.91;5031508;28;20088;-74
2023/07/16 05:20:13;;;;;;;5.57;2.22;;;;;;;-144.73;100.00;54350.22;5032452;28;20025;-75
2023/07/16 05:22:38;;;;;;;6.75;2.30;;;;;;;-144.73;100.00;54358.44;5032682;28;20132;-74
2023/07/16 05:25:04;;;;;;;11.15;2.63;;;;;;;-144.73;100.00;54317.38;5031822;28;20456;-73
2023/07/16 05:27:29;;;;;;;11.30;2.50;;;;;;;-144.73;100.00;54366.66;5031358;28;20029;-73
2023/07/16 05:29:55;;;;;;;5.93;2.35;;;;;;;-144.73;100.00;54333.81;5032202;28;20014;-73
2023/07/16 05:32:21;;;;;;;8.00;2.35;;;;;;;-144.73;100.00;54337.91;5032222;28;20089;-74
2023/07/16 05:34:47;;;;;;;5.00;1.90;;;;;;;-144.73;100.00;54337.91;5031401;28;20027;-74
2023/07/16 05:37:12;;;;;;;18.10;3.63;;;;;;;-144.73;100.00;54317.38;5031970;28;20112;-73
2023/07/16 05:39:38;;;;;;;11.73;2.78;;;;;;;-144.73;100.00;54321.50;5015361;28;20033;-73
2023/07/16 05:42:04;;;;;;;9.57;2.47;;;;;;;-144.73;100.00;54378.97;5028103;28;20025;-73
2023/07/16 05:44:30;;;;;;;8.85;2.67;;;;;;;-144.73;100.00;54329.72;5031638;28;20037;-73
2023/07/16 05:46:56;;;;;;;10.55;2.40;;;;;;;-144.73;100.00;54333.81;5033504;28;20032;-73
2023/07/16 05:49:21;;;;;;;10.48;2.78;;;;;;;-144.73;100.00;54325.59;5031372;28;20488;-73
2023/07/16 05:51:46;;;;;;;11.93;2.40;;;;;;;-144.73;100.00;54300.97;5032523;28;20061;-74
2023/07/16 05:54:12;;;;;;;10.93;2.55;;;;;;;-144.73;100.00;54366.66;5032189;28;20117;-73
2023/07/16 05:56:37;;;;;;;10.52;2.92;;;;;;;-144.73;100.00;54356.38;5031417;28;20051;-73
2023/07/16 05:59:02;;;;;;;6.30;2.30;;;;;;;-144.73;100.00;54362.53;5031202;28;20400;-74
2023/07/16 06:01:27;;;;;;;9.00;3.15;;;;;;;-144.73;100.00;54317.38;5031701;28;20072;-74
2023/07/16 06:03:53;;;;;;;8.40;3.20;;;;;;;-144.73;100.00;54315.34;5030255;28;20087;-73
2023/07/16 06:06:21;;;;;;;9.73;2.70;;;;;;;-144.73;100.00;54362.53;5048416;28;20026;-74
2023/07/16 06:08:47;;;;;;;7.68;2.72;;;;;;;-144.73;100.00;54337.91;5030697;28;20530;-74
2023/07/16 06:11:13;;;;;;;10.70;2.28;;;;;;;-144.73;100.00;54337.91;5031493;28;20033;-74
2023/07/16 06:13:38;;;;;;;8.13;2.35;;;;;;;-144.73;100.00;54368.69;5030559;28;20044;-74
2023/07/16 06:16:04;;;;;;;7.63;2.22;;;;;;;-144.73;100.00;54362.53;5031802;28;20024;-74
2023/07/16 06:18:29;;;;;;;9.52;2.50;;;;;;;-144.73;94.24;54337.91;5030876;28;20573;-75
2023/07/16 06:20:55;;;;;;;7.85;2.50;;;;;;;-144.73;93.92;54350.22;5032284;28;20061;-74
2023/07/16 06:23:20;;;;;;;13.23;2.88;;;;;;;-144.73;88.92;54352.28;5030512;28;20088;-74
2023/07/16 06:25:49;;;;;;;8.10;2.78;;;;;;;-144.73;87.94;54317.38;5030857;28;20034;-74
2023/07/16 06:28:15;;;;;;;11.15;2.50;;;;;;;-144.73;88.38;54323.53;5028252;28;20025;-75
2023/07/16 06:30:41;;;;;;;15.65;2.85;;;;;;;-144.73;87.70;54350.22;5031563;28;20048;-74
2023/07/16 06:33:06;;;;;;;10.52;2.67;;;;;;;-144.73;86.48;54337.91;5028364;28;20026;-74
2023/07/16 06:35:32;;;;;;;7.32;2.85;;;;;;;-144.73;86.17;54354.34;5027483;28;20108;-75
2023/07/16 06:37:57;;;;;;;7.18;2.67;;;;;;;-144.73;88.10;54284.56;5027527;28;20045;-74
2023/07/16 06:40:24;;;;;;;13.57;2.83;;;;;;;-144.73;87.10;54317.38;5029886;28;20551;-74
2023/07/16 06:42:49;;;;;;;9.40;2.40;;;;;;;-144.73;87.10;54350.22;5027395;28;20033;-74
2023/07/16 06:45:14;;;;;;;8.30;2.92;;;;;;;-144.73;85.62;54317.38;5030469;28;20071;-74
2023/07/16 06:47:40;;;;;;;15.05;3.75;;;;;;;-144.73;87.66;54350.22;5027083;28;20092;-74
2023/07/16 06:50:06;;;;;;;11.75;2.72;;;;;;;-144.73;85.91;54350.22;5030620;28;20104;-74
2023/07/16 06:52:31;;;;;;;12.98;3.10;;;;;;;-144.73;85.12;54309.19;5030185;28;20112;-75
2023/07/16 06:54:56;;;;;;;23.10;3.35;;;;;;;-144.73;84.89;54313.28;5031144;28;20017;-74
2023/07/16 06:57:25;;;;;;;9.90;3.03;;;;;;;-144.73;83.46;54329.72;5029867;28;20041;-74
2023/07/16 06:59:51;;;;;;;12.23;3.53;;;;;;;-144.73;83.02;54305.06;5030405;28;20049;-74
2023/07/16 07:02:17;;;;;;;7.53;2.78;;;;;;;-144.73;81.92;54294.81;5031069;28;20437;-75
2023/07/16 07:04:42;;;;;;;14.38;3.47;;;;;;;-144.73;81.53;54329.72;5030205;28;20057;-74
2023/07/16 07:07:07;;;;;;;10.82;3.38;;;;;;;-144.73;81.33;54352.28;5029958;28;20055;-74
2023/07/16 07:09:33;;;;;;;15.90;3.63;;;;;;;-144.73;79.37;54321.50;5030865;28;20029;-74
2023/07/16 07:11:58;;;;;;;11.27;3.42;;;;;;;-144.73;81.83;54288.66;5030108;28;20052;-74
2023/07/16 07:14:24;;;;;;;14.98;3.38;;;;;;;-144.73;79.99;54342.03;5027942;28;20030;-74
2023/07/16 07:16:49;;;;;;;9.68;3.05;;;;;;;-144.73;79.26;54296.88;5030394;28;20025;-74
2023/07/16 07:19:15;;;;;;;11.80;3.80;;;;;;;-144.73;78.61;54300.97;5030494;28;20207;-74
2023/07/16 07:21:40;;;;;;;18.02;2.90;;;;;;;-144.73;76.70;54292.75;5030464;28;20021;-75
2023/07/16 07:24:05;;;;;;;10.48;3.58;;;;;;;-144.73;78.06;54319.44;5029051;28;20037;-75
2023/07/16 07:26:31;;;;;;;13.20;3.47;;;;;;;-144.73;78.40;54331.75;5030676;28;20021;-74
2023/07/16 07:28:56;;;;;;;13.77;3.80;;;;;;;-144.73;74.89;54305.06;5029298;28;20048;-74
2023/07/16 07:31:21;;;;;;;12.38;3.42;;;;;;;-144.73;75.11;54325.59;5029729;28;20021;-74
2023/07/16 07:33:46;;;;;;;13.63;3.45;;;;;;;-144.73;75.11;54331.75;5029155;28;20044;-75
2023/07/16 07:36:12;;;;;;;14.05;3.80;;;;;;;-144.73;74.64;54313.28;5029838;28;20104;-75
2023/07/16 07:38:37;;;;;;;14.68;3.40;;;;;;;-144.73;74.97;54309.19;5028308;28;20041;-75
2023/07/16 07:41:05;;;;;;;11.65;3.20;;;;;;;-144.73;75.44;54296.88;5030080;28;20542;-75
2023/07/16 07:43:30;;;;;;;11.30;3.63;;;;;;;-144.73;76.79;54239.41;5030053;28;20108;-73
2023/07/16 07:45:55;;;;;;;15.70;3.30;;;;;;;-144.73;74.20;54342.03;5030460;28;20108;-73
2023/07/16 07:48:21;;;;;;;14.85;3.50;;;;;;;-144.73;73.72;54329.72;5030581;28;20033;-74
2023/07/16 07:50:47;;;;;;;13.32;3.22;;;;;;;-144.73;72.77;54280.44;5029927;28;20028;-74
2023/07/16 07:53:14;;;;;;;13.80;3.35;;;;;;;-144.73;71.62;54288.66;5028787;28;20037;-74
2023/07/16 07:55:39;;;;;;;11.80;3.25;;;;;;;-144.73;71.54;54280.44;5029263;28;20025;-74
2023/07/16 07:58:05;;;;;;;9.93;3.10;;;;;;;-144.73;71.63;54280.44;5045708;28;20041;-74
2023/07/16 08:00:30;;;;;;;12.80;3.63;;;;;;;-144.73;70.48;54342.03;5029468;28;20104;-74
2023/07/16 08:02:56;;;;;;;15.40;3.33;;;;;;;-144.73;71.02;54342.03;5030194;28;20092;-74
2023/07/16 08:05:21;;;;;;;8.18;3.10;;;;;;;-144.73;72.79;54264.03;5030693;28;20480;-74
2023/07/16 08:07:47;;;;;;;13.60;3.10;;;;;;;-144.73;73.63;54296.88;5029180;28;20107;-74
2023/07/16 08:10:13;;;;;;;12.98;3.38;;;;;;;-144.73;72.44;54235.28;5012364;28;20117;-74
2023/07/16 08:12:38;;;;;;;8.30;2.83;;;;;;;-144.73;72.00;54292.75;5025802;28;20033;-74
2023/07/16 08:15:04;;;;;;;8.50;3.13;;;;;;;-144.73;69.26;54296.88;5024492;28;20025;-74
2023/07/16 08:17:29;;;;;;;11.23;3.15;;;;;;;-144.73;68.37;54243.50;5023580;28;20057;-74
2023/07/16 08:19:55;;;;;;;6.65;2.42;;;;;;;-144.73;69.50;54317.38;5030315;28;20036;-74
2023/07/16 08:22:23;;;;;;;20.60;3.75;;;;;;;-144.73;67.30;54255.81;5028537;28;20033;-74
2023/07/16 08:24:50;;;;;;;13.70;2.95;;;;;;;-144.73;63.25;54300.97;5027943;28;20025;-74
2023/07/16 08:27:15;;;;;;;16.08;2.97;;;;;;;-144.73;65.73;54288.66;5029424;28;20034;-74
2023/07/16 08:29:40;;;;;;;13.07;2.58;;;;;;;-144.73;66.46;54288.66;5029014;28;20075;-74
2023/07/16 08:32:06;;;;;;;11.27;3.75;;;;;;;-144.73;64.78;54327.66;5028686;28;20026;-74
2023/07/16 08:34:31;;;;;;;10.13;3.03;;;;;;;-144.73;64.18;54280.44;5026518;28;20037;-74
2023/07/16 08:36:58;;;;;;;9.93;2.90;;;;;;;-144.73;63.22;54266.06;5028814;28;20053;-74
2023/07/16 08:39:24;;;;;;;7.82;2.65;;;;;;;-144.73;62.00;54288.66;5030004;28;20116;-74
2023/07/16 08:41:50;;;;;;;10.77;2.97;;;;;;;-144.73;62.70;54288.66;5012398;28;20040;-74
2023/07/16 08:44:15;;;;;;;10.10;2.95;;;;;;;-144.73;62.75;54303.03;5010849;28;20068;-74
2023/07/16 08:46:41;;;;;;;13.50;3.53;;;;;;;-144.73;63.62;54276.34;5012381;28;20025;-74
2023/07/16 08:49:07;;;;;;;14.27;3.25;;;;;;;-144.73;66.56;54300.97;5002468;28;20128;-74
2023/07/16 08:51:34;;;;;;;7.55;2.85;;;;;;;-144.73;66.75;54276.34;5002488;28;20025;-74
2023/07/16 08:54:00;;;;;;;15.23;3.63;;;;;;;-144.73;65.14;54243.50;5020436;28;20041;-74
2023/07/16 08:56:26;;;;;;;7.85;2.70;;;;;;;-144.73;62.49;54276.34;5010202;28;20026;-74
2023/07/16 08:58:55;;;;;;;10.93;2.75;;;;;;;-144.73;62.28;54241.44;5029361;28;20050;-74
2023/07/16 09:01:21;;;;;;;10.23;2.78;;;;;;;-144.73;61.42;54300.97;5014447;28;20019;-74
2023/07/16 09:03:46;;;;;;;10.65;4.03;;;;;;;-144.73;62.27;54280.44;5011593;28;20095;-73
2023/07/16 09:06:12;;;;;;;10.20;3.30;;;;;;;-144.73;60.00;54296.88;5011491;28;20043;-74
2023/07/16 09:08:38;;;;;;;14.25;3.25;;;;;;;-144.73;56.81;54288.66;5028077;28;20079;-74
2023/07/16 09:11:03;;;;;;;6.30;3.38;;;;;;;-144.73;55.83;54309.19;5030138;28;20200;-74
2023/07/16 09:13:29;;;;;;;9.05;3.10;;;;;;;-144.73;56.01;54233.25;5011811;28;20026;-75
2023/07/16 09:15:56;;;;;;;6.80;3.22;;;;;;;-144.73;54.30;54231.19;5011468;28;20075;-74
2023/07/16 09:18:22;;;;;;;12.95;3.83;;;;;;;-144.73;53.74;54294.81;5011090;28;20029;-74
2023/07/16 09:20:54;;;;;;;8.10;3.10;;;;;;;-144.73;53.07;54331.75;5009559;28;20025;-74
2023/07/16 09:23:19;;;;;;;10.10;4.13;;;;;;;-144.73;52.85;54292.75;5009113;28;20120;-73
2023/07/16 09:25:44;;;;;;;10.57;3.95;;;;;;;-144.73;53.40;54296.88;5012255;28;20102;-73
2023/07/16 09:28:10;;;;;;;12.13;3.95;;;;;;;-144.73;53.46;54251.72;5028999;28;20041;-74
2023/07/16 09:30:35;;;;;;;10.60;3.72;;;;;;;-144.73;55.06;54255.81;5009187;28;20026;-73
2023/07/16 09:33:14;;;;;;;11.48;4.35;;;;;;;-144.73;55.09;54239.41;5015166;28;20033;-73
2023/07/16 09:35:40;;;;;;;17.17;5.18;;;;;;;-144.73;52.90;54255.81;5018354;28;20038;-74
2023/07/16 09:38:08;;;;;;;11.57;3.45;;;;;;;-144.73;53.46;54253.75;5007386;28;20038;-74
2023/07/16 09:40:33;;;;;;;12.98;3.95;;;;;;;-144.73;53.40;54231.19;5012049;28;20077;-74
2023/07/16 09:43:01;;;;;;;12.40;3.95;;;;;;;-144.73;51.58;54264.03;5013547;28;20140;-75
2023/07/16 09:45:27;;;;;;;12.45;3.78;;;;;;;-144.73;50.61;54276.34;5044598;28;20017;-74
2023/07/16 09:47:52;;;;;;;7.30;4.20;;;;;;;-144.73;52.01;54321.50;5010891;28;20120;-74
2023/07/16 09:50:18;;;;;;;14.18;4.45;;;;;;;-144.73;52.24;54298.91;5011905;28;20111;-74
2023/07/16 09:52:43;;;;;;;12.45;4.15;;;;;;;-144.73;52.14;54276.34;5013182;28;20112;-74
2023/07/16 09:55:09;;;;;;;11.85;3.83;;;;;;;-144.73;51.89;54282.50;5012528;28;20024;-75
2023/07/16 09:57:41;;;;;;;14.35;4.38;;;;;;;-144.73;51.63;54309.19;5013090;28;20063;-75
2023/07/16 10:00:12;;;;;;;8.27;3.72;;;;;;;-144.73;51.82;54249.66;5012757;28;20104;-73
2023/07/16 10:02:38;;;;;;;10.23;4.43;;;;;;;-144.73;52.25;54280.44;5029676;28;20029;-73
2023/07/16 10:05:17;;;;;;;19.42;4.40;;;;;;;-144.73;52.35;54305.06;5012649;28;20089;-75
2023/07/16 10:07:52;;;;;;;10.90;4.70;;;;;;;-144.73;51.91;54307.13;5012459;28;20045;-73
2023/07/16 10:10:17;;;;;;;13.23;4.38;;;;;;;-144.73;51.92;54309.19;5012309;28;20128;-73
2023/07/16 10:12:54;;;;;;;33.72;4.57;;;;;;;-144.73;52.25;54229.13;5030535;28;20116;-75
2023/07/16 10:15:31;;;;;;;11.93;4.05;;;;;;;-144.73;51.14;54222.97;5012530;28;20029;-74
2023/07/16 10:17:57;;;;;;;11.52;4.35;;;;;;;-144.73;48.93;54231.19;5012184;28;20037;-74
2023/07/16 10:20:30;;;;;;;18.38;4.30;;;;;;;-144.73;51.34;54280.44;5030662;28;20040;-74
2023/07/16 10:22:56;;;;;;;9.15;4.13;;;;;;;-144.73;53.20;54292.75;5013001;28;20033;-73
2023/07/16 10:25:22;;;;;;;13.15;4.47;;;;;;;-144.73;53.41;54284.56;5011754;28;20570;-74
2023/07/16 10:27:50;;;;;;;12.07;4.82;;;;;;;-144.73;54.06;54280.44;5023524;28;20041;-73
2023/07/16 10:30:16;;;;;;;11.75;4.65;;;;;;;-144.73;55.72;54311.22;5012278;28;20022;-73
2023/07/16 10:32:42;;;;;;;16.52;4.75;;;;;;;-144.73;54.98;54292.75;5011965;28;20049;-73
2023/07/16 10:35:11;;;;;;;14.20;4.97;;;;;;;-144.73;54.75;54249.66;5011591;28;20476;-73
2023/07/16 10:37:37;;;;;;;16.65;4.55;;;;;;;-144.73;52.66;54294.81;5011697;28;20037;-73
2023/07/16 10:40:04;;;;;;;8.75;4.30;;;;;;;-144.73;51.15;54284.56;5013207;28;20029;-73
2023/07/16 10:42:30;;;;;;;11.60;4.70;;;;;;;-144.73;51.56;54276.34;5029507;28;20041;-73
2023/07/16 10:45:00;;;;;;;12.25;4.00;;;;;;;-144.73;52.06;54288.66;5013132;28;20025;-73
2023/07/16 10:47:37;;;;;;;9.25;4.03;;;;;;;-144.73;52.75;54280.44;5044607;28;20041;-73
2023/07/16 10:50:08;;;;;;;16.52;4.88;;;;;;;-144.73;53.20;54333.81;5028792;28;20014;-73
2023/07/16 10:52:34;;;;;;;10.77;4.80;;;;;;;-144.73;54.03;54298.91;5011824;28;20025;-73
2023/07/16 10:55:00;;;;;;;13.23;4.00;;;;;;;-144.73;53.39;54309.19;5011699;28;20049;-74
2023/07/16 10:57:27;;;;;;;10.35;4.90;;;;;;;-144.73;51.96;54292.75;5030394;28;20060;-74
2023/07/16 10:59:55;;;;;;;13.23;4.72;;;;;;;-144.73;52.25;54284.56;5031043;28;20045;-74
2023/07/16 11:02:22;;;;;;;7.13;4.15;;;;;;;-144.73;51.58;54292.75;5027811;28;20025;-75
2023/07/16 11:04:49;;;;;;;10.45;4.30;;;;;;;-144.73;52.35;54249.66;5014240;28;20021;-74